Thunder radar more information blitzortung!


Löydät sääaseman tiedot myös:

European Weather Network

Finland Weather Exchange

Weather Underground

AWEKAS



Weather Underground säähistoriasivu

Päivittäin yhteenveto Marraskuu 14, 2017 Yksiköt:  Metriset    Englantilaiset   Molemmat
« Edellinen Päivä
Seuraava Päivä »
Päivittäin Viikoittain Kuukausittain Vuosittain Mukautettu
  Korkea: Matala: Keskiarvo:
Lämpötila: -17.8 °C -19.1 °C -17.6 °C
Kastepiste: -17.8 °C -19.3 °C -17.9 °C
Kosteus: Humidity % 91 % 94 %
Tuulen nopeus: 0 km/h 0 km/h 0 km/h
Tuulenpuuska: 0 km/h - -
Tuuli:- - North
Ilmanpaine: 0 hPa 33924.3 hPa -
Sade: 0 mm    
Historical Graphs
 
 
Taulukkotiedot Marraskuu 14, 2017
Aika Lämpötila Kastepiste Ilmanpaine Tuuli Tuulen nopeus Tuulenpuuska Kosteus Sademäärä (tunneittain)
-17.8 °C -17.8 °C 0 hPa Calm     Humidity % 0 mm
00:00 -17.5 °C -17.8 °C 33948 hPa Calm     96 % 0 mm
00:15 -17.6 °C -17.9 °C 33948 hPa Calm     95 % 0 mm
00:45 -17.6 °C -17.9 °C 33948 hPa Calm     95 % 0 mm
01:15 -17.6 °C -18 °C 33948 hPa Calm     94 % 0 mm
01:30 -17.6 °C -18 °C 33948 hPa Calm     94 % 0 mm
01:45 -17.6 °C -18 °C 33948 hPa Calm     94 % 0 mm
02:00 -17.4 °C -18 °C 33948 hPa Calm     93 % 0 mm
02:15 -17.4 °C -18 °C 33948 hPa Calm     93 % 0 mm
02:30 -17.4 °C -18 °C 33937.9 hPa Calm     93 % 0 mm
02:45 -17.4 °C -18 °C 33937.9 hPa Calm     93 % 0 mm
03:00 -17.4 °C -18.1 °C 33937.9 hPa Calm     92 % 0 mm
03:15 -17.3 °C -18.1 °C 33937.9 hPa Calm     91 % 0 mm
03:30 -17.3 °C -18.1 °C 33948 hPa Calm     91 % 0 mm
03:45 -17.4 °C -18 °C 33937.9 hPa Calm     92 % 0 mm
04:00 -17.4 °C -17.8 °C 33937.9 hPa Calm     94 % 0 mm
04:15 -17.4 °C -17.9 °C 33937.9 hPa Calm     94 % 0 mm
04:30 -17.6 °C -18.1 °C 33937.9 hPa Calm     94 % 0 mm
04:45 -17.7 °C -18.2 °C 33937.9 hPa Calm     94 % 0 mm
05:00 -17.7 °C -18.1 °C 33937.9 hPa Calm     95 % 0 mm
05:15 -17.7 °C -18.1 °C 33937.9 hPa Calm     95 % 0 mm
05:30 -17.7 °C -18.1 °C 33937.9 hPa Calm     95 % 0 mm
05:45 -17.7 °C -18 °C 33937.9 hPa Calm     96 % 0 mm
06:00 -17.6 °C -17.9 °C 33937.9 hPa Calm     96 % 0 mm
06:15 -17.6 °C -17.9 °C 33924.3 hPa Calm     96 % 0 mm
06:30 -17.5 °C -17.8 °C 33924.3 hPa Calm     96 % 0 mm
06:45 -17.4 °C -17.8 °C 33924.3 hPa Calm     96 % 0 mm
07:00 -17.4 °C -17.8 °C 33924.3 hPa Calm     96 % 0 mm
07:15 -17.4 °C -17.8 °C 33924.3 hPa Calm     96 % 0 mm
07:30 -17.6 °C -17.8 °C 33924.3 hPa Calm     96 % 0 mm
07:45 -17.7 °C -17.9 °C 33924.3 hPa Calm     96 % 0 mm
08:00 -17.7 °C -18 °C 33924.3 hPa Calm     96 % 0 mm
08:15 -17.7 °C -18 °C 33924.3 hPa Calm     96 % 0 mm
08:30 -17.7 °C -18.1 °C 33924.3 hPa Calm     96 % 0 mm
08:45 -17.8 °C -18.1 °C 33924.3 hPa Calm     96 % 0 mm
09:00 -17.8 °C -18 °C 33924.3 hPa Calm     97 % 0 mm
09:15 -17.8 °C -18.2 °C 33924.3 hPa Calm     96 % 0 mm
09:30 -17.9 °C -18.2 °C 33924.3 hPa Calm     96 % 0 mm
09:45 -17.8 °C -18 °C 33924.3 hPa Calm     97 % 0 mm
10:00 -17.7 °C -17.9 °C 33924.3 hPa Calm     97 % 0 mm
10:15 -17.6 °C -17.8 °C 33924.3 hPa Calm     97 % 0 mm
10:30 -17.4 °C -17.7 °C 33924.3 hPa Calm     97 % 0 mm
10:45 -17.3 °C -17.6 °C 33937.9 hPa Calm     96 % 0 mm
11:00 -17.2 °C -17.5 °C 33937.9 hPa Calm     96 % 0 mm
11:15 -16.9 °C -17.3 °C 33937.9 hPa Calm     95 % 0 mm
11:30 -16.8 °C -17.2 °C 33937.9 hPa Calm     95 % 0 mm
11:45 -16.8 °C -17.3 °C 33937.9 hPa Calm     94 % 0 mm
12:00 -16.8 °C -17.2 °C 33937.9 hPa Calm     94 % 0 mm
12:15 -16.7 °C -17.2 °C 33937.9 hPa Calm     94 % 0 mm
12:30 -16.7 °C -17.2 °C 33937.9 hPa Calm     93 % 0 mm
12:45 -16.7 °C -17.3 °C 33937.9 hPa Calm     92 % 0 mm
13:00 -16.7 °C -17.3 °C 33937.9 hPa Calm     92 % 0 mm
13:15 -16.7 °C -17.3 °C 33937.9 hPa Calm     93 % 0 mm
13:30 -16.8 °C -17.3 °C 33937.9 hPa Calm     93 % 0 mm
13:45 -16.8 °C -17.3 °C 33937.9 hPa Calm     93 % 0 mm
14:00 -16.8 °C -17.3 °C 33937.9 hPa Calm     93 % 0 mm
14:15 -16.7 °C -17.3 °C 33937.9 hPa Calm     93 % 0 mm
14:30 -16.8 °C -17.3 °C 33937.9 hPa Calm     93 % 0 mm
14:45 -16.8 °C -17.4 °C 33937.9 hPa Calm     93 % 0 mm
15:00 -16.8 °C -17.4 °C 33948 hPa Calm     93 % 0 mm
15:15 -16.8 °C -17.4 °C 33937.9 hPa Calm     93 % 0 mm
15:30 -16.8 °C -17.4 °C 33948 hPa Calm     93 % 0 mm
15:45 -16.8 °C -17.4 °C 33948 hPa Calm     93 % 0 mm
16:00 -16.8 °C -17.4 °C 33948 hPa Calm     93 % 0 mm
16:15 -17 °C -17.6 °C 33948 hPa Calm     93 % 0 mm
16:30 -17 °C -17.5 °C 33958.2 hPa Calm     94 % 0 mm
16:45 -17.1 °C -17.6 °C 33948 hPa Calm     94 % 0 mm
17:00 -17.1 °C -17.6 °C 33958.2 hPa Calm     94 % 0 mm
17:15 -17.2 °C -17.6 °C 33958.2 hPa Calm     94 % 0 mm
17:30 -17.3 °C -17.7 °C 33958.2 hPa Calm     95 % 0 mm
17:45 -17.3 °C -17.7 °C 33958.2 hPa Calm     95 % 0 mm
18:00 -17.4 °C -17.8 °C 33958.2 hPa Calm     95 % 0 mm
18:15 -17.6 °C -17.9 °C 33958.2 hPa Calm     95 % 0 mm
18:30 -17.7 °C -18.1 °C 33958.2 hPa Calm     95 % 0 mm
18:45 -17.8 °C -18.2 °C 33958.2 hPa Calm     95 % 0 mm
19:00 -17.9 °C -18.3 °C 33958.2 hPa Calm     95 % 0 mm
19:15 -18.1 °C -18.4 °C 33971.7 hPa Calm     96 % 0 mm
19:30 -18.2 °C -18.5 °C 33971.7 hPa Calm     96 % 0 mm
19:45 -18.2 °C -18.5 °C 33971.7 hPa Calm     96 % 0 mm
20:00 -18.2 °C -18.6 °C 33971.7 hPa Calm     96 % 0 mm
20:15 -18.3 °C -18.7 °C 33971.7 hPa Calm     96 % 0 mm
20:30 -18.4 °C -18.7 °C 33971.7 hPa Calm     96 % 0 mm
20:45 -18.4 °C -18.6 °C 33981.9 hPa Calm     97 % 0 mm
21:00 -18.3 °C -18.6 °C 33971.7 hPa Calm     97 % 0 mm
21:15 -18.4 °C -18.7 °C 33981.9 hPa Calm     96 % 0 mm
21:30 -18.5 °C -18.8 °C 33981.9 hPa Calm     96 % 0 mm
21:45 -18.6 °C -18.8 °C 33981.9 hPa Calm     96 % 0 mm
22:00 -18.6 °C -18.9 °C 33981.9 hPa Calm     96 % 0 mm
22:15 -18.6 °C -18.8 °C 33981.9 hPa Calm     97 % 0 mm
22:30 -18.6 °C -18.8 °C 33981.9 hPa Calm     97 % 0 mm
22:45 -18.6 °C -18.9 °C 33981.9 hPa Calm     96 % 0 mm
23:00 -18.7 °C -19.1 °C 33992.1 hPa Calm     96 % 0 mm
23:15 -18.8 °C -19.2 °C 33981.9 hPa Calm     96 % 0 mm
23:30 -19 °C -19.3 °C 33981.9 hPa Calm     96 % 0 mm
23:45 -19.1 °C -19.3 °C 33992.1 hPa Calm     96 % 0 mm
Esan sääasema
Terveisin Weather Underground - 2.75 mb

Alkuperäinen skripti  Jim McMurry - jmcmurry@mwt.net Sovitettu myös templatelle  Wim van der Kuil - Leuven-Template.eu

Laitteet joita käytämme:

Sääasema
Davis VP2

Sääasemaohjelma
Cumulus

Sääaseman tietokone
Asus EeePC

Palveluntarjoaja
Suncomet

Davis VP2

Cumulus

Asus EeePC

Suncomet